Aurora Center, South Dakota
Current Conditions -  °F | °C
As of 3:53 AM on Thursday 23 Oct 2014 (Local Time) from KMHE Reporting Station
Clear Clear  
Wind Chill: 43°   Ceiling: Unl
Heat Index: 47°   Visibility: 10mi
Dew Point: 45°   Wind: 9mph
Humidity: 93%   Direction: 240°WSW
Pressure: 30"   Gusts: NA
Location:  43.5853°N, 98.5581°W
Report Text: KMHE 230853Z AUTO 24008KT 10SM CLR 08/07 A3000 RMK AO2 SLP162 T00830072 58003 $
Loading
Personal Weather Stations






























Interactive Weather Map New forecast layout! Learn more

10-Day Weather Forecast

Advertisements
Track Severe Weather on mobile